sensor_id;sensor_type;location;lat;lon;timestamp;pressure;altitude;pressure_sealevel;temperature;humidity
36524;BME280;66329;46.796;9.824;2023-01-31T00:00:29;84893.81;;;24.69;4.77
36524;BME280;66329;46.796;9.824;2023-01-31T00:02:57;84896.04;;;25.22;4.77
36524;BME280;66329;46.796;9.824;2023-01-31T00:05:25;84889.71;;;25.16;4.79
36524;BME280;66329;46.796;9.824;2023-01-31T00:07:53;84885.68;;;24.64;4.80
36524;BME280;66329;46.796;9.824;2023-01-31T00:10:20;84888.59;;;25.17;4.80
36524;BME280;66329;46.796;9.824;2023-01-31T00:12:48;84893.06;;;25.13;4.80
36524;BME280;66329;46.796;9.824;2023-01-31T00:15:15;84894.88;;;25.55;4.80
36524;BME280;66329;46.796;9.824;2023-01-31T00:17:43;84891.86;;;25.55;4.80
36524;BME280;66329;46.796;9.824;2023-01-31T00:20:11;84893.13;;;24.61;4.81
36524;BME280;66329;46.796;9.824;2023-01-31T00:22:38;84892.70;;;25.16;4.81
36524;BME280;66329;46.796;9.824;2023-01-31T00:25:06;84900.58;;;25.17;4.80
36524;BME280;66329;46.796;9.824;2023-01-31T00:27:34;84901.61;;;25.57;4.80
36524;BME280;66329;46.796;9.824;2023-01-31T00:30:02;84905.24;;;25.57;4.81
36524;BME280;66329;46.796;9.824;2023-01-31T00:32:29;84903.20;;;25.58;4.81
36524;BME280;66329;46.796;9.824;2023-01-31T00:34:57;84897.19;;;24.62;4.81
36524;BME280;66329;46.796;9.824;2023-01-31T00:37:25;84896.72;;;24.62;4.85
36524;BME280;66329;46.796;9.824;2023-01-31T00:39:52;84896.85;;;25.51;4.83
36524;BME280;66329;46.796;9.824;2023-01-31T00:42:20;84897.64;;;24.60;4.83
36524;BME280;66329;46.796;9.824;2023-01-31T00:44:47;84895.46;;;25.50;4.84
36524;BME280;66329;46.796;9.824;2023-01-31T00:47:14;84894.66;;;25.07;4.84
36524;BME280;66329;46.796;9.824;2023-01-31T00:49:41;84894.08;;;25.10;4.84
36524;BME280;66329;46.796;9.824;2023-01-31T00:52:08;84891.49;;;25.50;4.83
36524;BME280;66329;46.796;9.824;2023-01-31T00:54:36;84895.67;;;25.08;4.83
36524;BME280;66329;46.796;9.824;2023-01-31T00:57:04;84902.57;;;25.49;4.84
36524;BME280;66329;46.796;9.824;2023-01-31T00:59:32;84900.73;;;24.58;4.85
36524;BME280;66329;46.796;9.824;2023-01-31T01:02:00;84899.84;;;25.09;4.85
36524;BME280;66329;46.796;9.824;2023-01-31T01:04:28;84895.52;;;25.53;4.85
36524;BME280;66329;46.796;9.824;2023-01-31T01:06:58;84896.43;;;24.61;4.85
36524;BME280;66329;46.796;9.824;2023-01-31T01:09:26;84903.45;;;24.56;4.86
36524;BME280;66329;46.796;9.824;2023-01-31T01:11:53;84901.36;;;25.06;4.86
36524;BME280;66329;46.796;9.824;2023-01-31T01:14:21;84897.47;;;25.03;4.86
36524;BME280;66329;46.796;9.824;2023-01-31T01:16:49;84892.70;;;25.44;4.86
36524;BME280;66329;46.796;9.824;2023-01-31T01:19:18;84891.45;;;25.07;4.86
36524;BME280;66329;46.796;9.824;2023-01-31T01:21:46;84892.29;;;25.08;4.86
36524;BME280;66329;46.796;9.824;2023-01-31T01:24:16;84895.26;;;25.06;4.87
36524;BME280;66329;46.796;9.824;2023-01-31T01:26:45;84894.84;;;25.05;4.87
36524;BME280;66329;46.796;9.824;2023-01-31T01:29:15;84893.55;;;25.47;4.87
36524;BME280;66329;46.796;9.824;2023-01-31T01:31:42;84888.85;;;25.49;4.86
36524;BME280;66329;46.796;9.824;2023-01-31T01:34:12;84888.22;;;25.07;4.85
36524;BME280;66329;46.796;9.824;2023-01-31T01:36:41;84890.66;;;25.51;4.86
36524;BME280;66329;46.796;9.824;2023-01-31T01:39:10;84894.64;;;25.09;4.87
36524;BME280;66329;46.796;9.824;2023-01-31T01:41:39;84896.81;;;25.11;4.87
36524;BME280;66329;46.796;9.824;2023-01-31T01:44:43;84895.48;;;25.08;4.87
36524;BME280;66329;46.796;9.824;2023-01-31T01:47:32;84888.77;;;25.36;4.89
36524;BME280;66329;46.796;9.824;2023-01-31T01:50:05;84889.46;;;24.50;4.88
36524;BME280;66329;46.796;9.824;2023-01-31T01:52:39;84888.86;;;25.43;4.87
36524;BME280;66329;46.796;9.824;2023-01-31T01:55:15;84890.02;;;24.50;4.88
36524;BME280;66329;46.796;9.824;2023-01-31T01:57:48;84888.20;;;25.49;4.87
36524;BME280;66329;46.796;9.824;2023-01-31T02:00:21;84891.24;;;24.58;4.88
36524;BME280;66329;46.796;9.824;2023-01-31T02:02:57;84893.08;;;25.48;4.88
36524;BME280;66329;46.796;9.824;2023-01-31T02:05:29;84891.40;;;25.47;4.88
36524;BME280;66329;46.796;9.824;2023-01-31T02:07:59;84892.86;;;24.53;4.87
36524;BME280;66329;46.796;9.824;2023-01-31T02:10:31;84893.34;;;25.01;4.89
36524;BME280;66329;46.796;9.824;2023-01-31T02:13:01;84896.59;;;24.50;4.88
36524;BME280;66329;46.796;9.824;2023-01-31T02:15:31;84891.13;;;25.46;4.87
36524;BME280;66329;46.796;9.824;2023-01-31T02:18:00;84895.79;;;25.47;4.87
36524;BME280;66329;46.796;9.824;2023-01-31T02:21:31;84895.88;;;25.07;4.88
36524;BME280;66329;46.796;9.824;2023-01-31T02:25:13;84897.08;;;24.80;4.96
36524;BME280;66329;46.796;9.824;2023-01-31T02:27:59;84890.87;;;25.10;4.97
36524;BME280;66329;46.796;9.824;2023-01-31T02:31:15;84891.00;;;25.14;4.96
36524;BME280;66329;46.796;9.824;2023-01-31T02:33:53;84895.70;;;25.10;4.97
36524;BME280;66329;46.796;9.824;2023-01-31T02:36:32;84894.00;;;25.23;4.95
36524;BME280;66329;46.796;9.824;2023-01-31T02:39:14;84889.48;;;25.35;4.93
36524;BME280;66329;46.796;9.824;2023-01-31T02:41:53;84891.33;;;24.42;4.93
36524;BME280;66329;46.796;9.824;2023-01-31T02:44:35;84893.76;;;24.93;4.91
36524;BME280;66329;46.796;9.824;2023-01-31T02:47:15;84895.56;;;24.93;4.90
36524;BME280;66329;46.796;9.824;2023-01-31T02:49:51;84895.96;;;24.41;4.91
36524;BME280;66329;46.796;9.824;2023-01-31T02:52:32;84894.30;;;24.98;4.88
36524;BME280;66329;46.796;9.824;2023-01-31T02:55:09;84887.96;;;25.39;4.89
36524;BME280;66329;46.796;9.824;2023-01-31T02:57:43;84884.99;;;25.42;4.90
36524;BME280;66329;46.796;9.824;2023-01-31T03:00:13;84884.61;;;25.05;4.89
36524;BME280;66329;46.796;9.824;2023-01-31T03:02:43;84881.48;;;24.55;4.88
36524;BME280;66329;46.796;9.824;2023-01-31T03:05:29;84881.91;;;25.48;4.86
36524;BME280;66329;46.796;9.824;2023-01-31T03:08:00;84879.75;;;24.94;4.89
36524;BME280;66329;46.796;9.824;2023-01-31T03:10:45;84880.50;;;25.45;4.85
36524;BME280;66329;46.796;9.824;2023-01-31T03:13:31;84885.99;;;25.43;4.86
36524;BME280;66329;46.796;9.824;2023-01-31T03:16:15;84889.83;;;25.03;4.89
36524;BME280;66329;46.796;9.824;2023-01-31T03:18:53;84895.67;;;25.47;4.88
36524;BME280;66329;46.796;9.824;2023-01-31T03:21:31;84901.38;;;25.01;4.88
36524;BME280;66329;46.796;9.824;2023-01-31T03:24:04;84909.51;;;25.01;4.86
36524;BME280;66329;46.796;9.824;2023-01-31T03:26:34;84911.22;;;25.06;4.85
36524;BME280;66329;46.796;9.824;2023-01-31T03:29:04;84914.80;;;25.46;4.84
36524;BME280;66329;46.796;9.824;2023-01-31T03:31:36;84916.76;;;24.54;4.84
36524;BME280;66329;46.796;9.824;2023-01-31T03:34:08;84919.63;;;25.07;4.85
36524;BME280;66329;46.796;9.824;2023-01-31T03:36:40;84925.59;;;24.58;4.87
36524;BME280;66329;46.796;9.824;2023-01-31T03:39:18;84931.36;;;24.60;4.84
36524;BME280;66329;46.796;9.824;2023-01-31T03:41:55;84928.92;;;25.53;4.82
36524;BME280;66329;46.796;9.824;2023-01-31T03:44:32;84928.37;;;25.14;4.80
36524;BME280;66329;46.796;9.824;2023-01-31T03:47:04;84929.40;;;25.46;4.84
36524;BME280;66329;46.796;9.824;2023-01-31T03:49:37;84935.51;;;25.03;4.82
36524;BME280;66329;46.796;9.824;2023-01-31T03:52:07;84934.89;;;25.02;4.81
36524;BME280;66329;46.796;9.824;2023-01-31T03:54:40;84932.39;;;25.02;4.81
36524;BME280;66329;46.796;9.824;2023-01-31T03:57:13;84934.27;;;24.53;4.81
36524;BME280;66329;46.796;9.824;2023-01-31T03:59:45;84933.30;;;25.49;4.78
36524;BME280;66329;46.796;9.824;2023-01-31T04:02:15;84937.73;;;25.07;4.83
36524;BME280;66329;46.796;9.824;2023-01-31T04:04:48;84941.39;;;25.49;4.84
36524;BME280;66329;46.796;9.824;2023-01-31T04:07:19;84942.05;;;25.04;4.82
36524;BME280;66329;46.796;9.824;2023-01-31T04:09:47;84938.77;;;25.47;4.78
36524;BME280;66329;46.796;9.824;2023-01-31T04:12:14;84945.06;;;25.45;4.79
36524;BME280;66329;46.796;9.824;2023-01-31T04:14:45;84946.20;;;25.07;4.78
36524;BME280;66329;46.796;9.824;2023-01-31T04:17:12;84942.64;;;25.04;4.77
36524;BME280;66329;46.796;9.824;2023-01-31T04:19:39;84940.46;;;24.58;4.76
36524;BME280;66329;46.796;9.824;2023-01-31T04:22:06;84935.79;;;24.57;4.74
36524;BME280;66329;46.796;9.824;2023-01-31T04:24:34;84937.12;;;25.56;4.72
36524;BME280;66329;46.796;9.824;2023-01-31T04:27:01;84939.52;;;25.46;4.75
36524;BME280;66329;46.796;9.824;2023-01-31T04:29:28;84939.38;;;24.56;4.73
36524;BME280;66329;46.796;9.824;2023-01-31T04:32:01;84940.29;;;24.55;4.73
36524;BME280;66329;46.796;9.824;2023-01-31T04:34:29;84938.64;;;25.49;4.71
36524;BME280;66329;46.796;9.824;2023-01-31T04:36:56;84936.93;;;25.49;4.72
36524;BME280;66329;46.796;9.824;2023-01-31T04:39:23;84940.39;;;25.46;4.72
36524;BME280;66329;46.796;9.824;2023-01-31T04:41:51;84941.16;;;24.53;4.71
36524;BME280;66329;46.796;9.824;2023-01-31T04:44:18;84945.34;;;25.06;4.77
36524;BME280;66329;46.796;9.824;2023-01-31T04:46:45;84943.96;;;25.04;4.68
36524;BME280;66329;46.796;9.824;2023-01-31T04:49:12;84950.63;;;25.03;4.71
36524;BME280;66329;46.796;9.824;2023-01-31T04:51:40;84952.90;;;25.03;4.69
36524;BME280;66329;46.796;9.824;2023-01-31T04:54:07;84955.52;;;25.07;4.67
36524;BME280;66329;46.796;9.824;2023-01-31T04:56:34;84958.87;;;25.07;4.66
36524;BME280;66329;46.796;9.824;2023-01-31T04:59:02;84961.88;;;25.09;4.63
36524;BME280;66329;46.796;9.824;2023-01-31T05:01:29;84970.63;;;25.05;4.66
36524;BME280;66329;46.796;9.824;2023-01-31T05:03:56;84976.98;;;25.51;4.64
36524;BME280;66329;46.796;9.824;2023-01-31T05:06:23;84982.06;;;25.04;4.65
36524;BME280;66329;46.796;9.824;2023-01-31T05:08:53;84983.03;;;25.47;4.63
36524;BME280;66329;46.796;9.824;2023-01-31T05:11:20;84983.15;;;25.02;4.64
36524;BME280;66329;46.796;9.824;2023-01-31T05:13:48;84986.52;;;24.99;4.64
36524;BME280;66329;46.796;9.824;2023-01-31T05:16:15;84994.85;;;25.50;4.66
36524;BME280;66329;46.796;9.824;2023-01-31T05:18:42;84993.71;;;25.52;4.64
36524;BME280;66329;46.796;9.824;2023-01-31T05:21:10;84993.12;;;25.50;4.64
36524;BME280;66329;46.796;9.824;2023-01-31T05:23:38;84993.62;;;25.51;4.66
36524;BME280;66329;46.796;9.824;2023-01-31T05:26:05;84997.54;;;25.16;4.65
36524;BME280;66329;46.796;9.824;2023-01-31T05:28:32;84999.71;;;24.70;4.68
36524;BME280;66329;46.796;9.824;2023-01-31T05:31:02;84999.45;;;25.18;4.69
36524;BME280;66329;46.796;9.824;2023-01-31T05:33:30;84998.27;;;25.67;4.66
36524;BME280;66329;46.796;9.824;2023-01-31T05:36:02;85000.93;;;24.76;4.65
36524;BME280;66329;46.796;9.824;2023-01-31T05:38:30;85003.75;;;25.22;4.64
36524;BME280;66329;46.796;9.824;2023-01-31T05:40:59;85006.63;;;25.64;4.65
36524;BME280;66329;46.796;9.824;2023-01-31T05:43:27;85008.32;;;24.74;4.65
36524;BME280;66329;46.796;9.824;2023-01-31T05:45:54;85011.62;;;25.28;4.65
36524;BME280;66329;46.796;9.824;2023-01-31T05:48:21;85014.05;;;25.32;4.62
36524;BME280;66329;46.796;9.824;2023-01-31T05:50:48;85013.53;;;25.43;4.58
36524;BME280;66329;46.796;9.824;2023-01-31T05:53:15;85017.47;;;25.42;4.60
36524;BME280;66329;46.796;9.824;2023-01-31T05:55:43;85019.83;;;24.94;4.59
36524;BME280;66329;46.796;9.824;2023-01-31T05:58:10;85019.35;;;24.97;4.64
36524;BME280;66329;46.796;9.824;2023-01-31T06:00:37;85018.78;;;24.88;4.62
36524;BME280;66329;46.796;9.824;2023-01-31T06:03:04;85024.43;;;24.60;4.66
36524;BME280;66329;46.796;9.824;2023-01-31T06:05:55;85029.00;;;25.06;4.67
36524;BME280;66329;46.796;9.824;2023-01-31T06:08:28;85026.62;;;24.93;4.74
36524;BME280;66329;46.796;9.824;2023-01-31T06:10:55;85026.95;;;25.48;4.66
36524;BME280;66329;46.796;9.824;2023-01-31T06:13:22;85029.47;;;25.48;4.61
36524;BME280;66329;46.796;9.824;2023-01-31T06:15:49;85032.89;;;25.03;4.59
36524;BME280;66329;46.796;9.824;2023-01-31T06:18:16;85030.02;;;25.06;4.55
36524;BME280;66329;46.796;9.824;2023-01-31T06:20:44;85027.95;;;25.08;4.53
36524;BME280;66329;46.796;9.824;2023-01-31T06:23:11;85026.16;;;25.00;4.62
36524;BME280;66329;46.796;9.824;2023-01-31T06:25:38;85035.35;;;24.87;4.65
36524;BME280;66329;46.796;9.824;2023-01-31T06:28:06;85031.43;;;25.36;4.89
36524;BME280;66329;46.796;9.824;2023-01-31T06:30:33;85032.33;;;24.75;4.74
36524;BME280;66329;46.796;9.824;2023-01-31T06:33:05;85032.77;;;24.64;5.31
36524;BME280;66329;46.796;9.824;2023-01-31T06:35:32;85033.78;;;24.92;4.70
36524;BME280;66329;46.796;9.824;2023-01-31T06:37:59;85033.43;;;25.44;4.95
36524;BME280;66329;46.796;9.824;2023-01-31T06:40:26;85039.09;;;25.38;5.00
36524;BME280;66329;46.796;9.824;2023-01-31T06:42:55;85040.54;;;25.75;5.08
36524;BME280;66329;46.796;9.824;2023-01-31T06:45:23;85036.08;;;24.84;5.07
36524;BME280;66329;46.796;9.824;2023-01-31T06:47:50;85034.33;;;25.40;5.19
36524;BME280;66329;46.796;9.824;2023-01-31T06:50:17;85034.54;;;25.40;5.29
36524;BME280;66329;46.796;9.824;2023-01-31T06:52:45;85034.45;;;25.44;5.38
36524;BME280;66329;46.796;9.824;2023-01-31T06:55:12;85034.99;;;24.92;5.52
36524;BME280;66329;46.796;9.824;2023-01-31T06:57:45;85042.46;;;24.95;5.61
36524;BME280;66329;46.796;9.824;2023-01-31T07:00:14;85039.90;;;25.45;5.65
36524;BME280;66329;46.796;9.824;2023-01-31T07:02:42;85045.91;;;25.49;5.59
36524;BME280;66329;46.796;9.824;2023-01-31T07:05:09;85055.01;;;24.97;5.72
36524;BME280;66329;46.796;9.824;2023-01-31T07:07:36;85060.31;;;25.47;5.69
36524;BME280;66329;46.796;9.824;2023-01-31T07:10:04;85052.62;;;25.04;5.66
36524;BME280;66329;46.796;9.824;2023-01-31T07:12:31;85059.94;;;25.50;5.82
36524;BME280;66329;46.796;9.824;2023-01-31T07:14:58;85063.35;;;25.87;5.80
36524;BME280;66329;46.796;9.824;2023-01-31T07:17:25;85068.22;;;24.75;5.88
36524;BME280;66329;46.796;9.824;2023-01-31T07:19:53;85072.58;;;23.83;6.69
36524;BME280;66329;46.796;9.824;2023-01-31T07:22:20;85074.47;;;25.07;6.12
36524;BME280;66329;46.796;9.824;2023-01-31T07:24:47;85078.29;;;25.33;5.96
36524;BME280;66329;46.796;9.824;2023-01-31T07:27:14;85074.62;;;25.39;6.05
36524;BME280;66329;46.796;9.824;2023-01-31T07:29:41;85076.05;;;25.83;6.06
36524;BME280;66329;46.796;9.824;2023-01-31T07:32:09;85071.57;;;25.40;5.95
36524;BME280;66329;46.796;9.824;2023-01-31T07:34:36;85073.74;;;24.92;5.89
36524;BME280;66329;46.796;9.824;2023-01-31T07:37:04;85077.57;;;25.86;6.03
36524;BME280;66329;46.796;9.824;2023-01-31T07:39:31;85081.42;;;25.37;5.90
36524;BME280;66329;46.796;9.824;2023-01-31T07:41:58;85087.26;;;24.90;6.09
36524;BME280;66329;46.796;9.824;2023-01-31T07:44:26;85085.81;;;25.83;6.14
36524;BME280;66329;46.796;9.824;2023-01-31T07:46:53;85082.21;;;24.93;5.98
36524;BME280;66329;46.796;9.824;2023-01-31T07:49:21;85081.61;;;24.94;6.03
36524;BME280;66329;46.796;9.824;2023-01-31T07:51:48;85085.92;;;24.97;6.16
36524;BME280;66329;46.796;9.824;2023-01-31T07:54:15;85085.94;;;24.93;6.10
36524;BME280;66329;46.796;9.824;2023-01-31T07:56:42;85085.53;;;24.96;6.15
36524;BME280;66329;46.796;9.824;2023-01-31T07:59:09;85082.35;;;25.84;6.15
36524;BME280;66329;46.796;9.824;2023-01-31T08:01:36;85084.70;;;25.46;6.04
36524;BME280;66329;46.796;9.824;2023-01-31T08:04:05;85084.68;;;25.47;6.06
36524;BME280;66329;46.796;9.824;2023-01-31T08:06:33;85093.03;;;24.73;6.13
36524;BME280;66329;46.796;9.824;2023-01-31T08:09:01;85090.08;;;24.32;6.05
36524;BME280;66329;46.796;9.824;2023-01-31T08:11:28;85091.70;;;24.90;6.14
36524;BME280;66329;46.796;9.824;2023-01-31T08:13:56;85098.98;;;25.33;6.10
36524;BME280;66329;46.796;9.824;2023-01-31T08:16:24;85098.13;;;25.48;6.01
36524;BME280;66329;46.796;9.824;2023-01-31T08:18:52;85098.58;;;25.54;6.04
36524;BME280;66329;46.796;9.824;2023-01-31T08:21:19;85100.12;;;25.60;6.07
36524;BME280;66329;46.796;9.824;2023-01-31T08:23:46;85102.40;;;25.62;6.02
36524;BME280;66329;46.796;9.824;2023-01-31T08:26:15;85091.59;;;25.24;5.96
36524;BME280;66329;46.796;9.824;2023-01-31T08:28:44;85089.63;;;25.27;5.72
36524;BME280;66329;46.796;9.824;2023-01-31T08:31:13;85088.31;;;24.86;5.67
36524;BME280;66329;46.796;9.824;2023-01-31T08:33:41;85087.44;;;25.73;5.79
36524;BME280;66329;46.796;9.824;2023-01-31T08:36:09;85089.97;;;24.86;5.92
36524;BME280;66329;46.796;9.824;2023-01-31T08:38:37;85089.26;;;25.41;5.99
36524;BME280;66329;46.796;9.824;2023-01-31T08:41:04;85091.30;;;25.40;5.98
36524;BME280;66329;46.796;9.824;2023-01-31T08:43:31;85096.99;;;24.95;5.79
36524;BME280;66329;46.796;9.824;2023-01-31T08:45:58;85097.75;;;25.47;5.82
36524;BME280;66329;46.796;9.824;2023-01-31T08:48:25;85097.85;;;25.51;5.92
36524;BME280;66329;46.796;9.824;2023-01-31T08:50:52;85097.52;;;25.16;5.82
36524;BME280;66329;46.796;9.824;2023-01-31T08:53:19;85096.81;;;24.77;5.78
36524;BME280;66329;46.796;9.824;2023-01-31T08:55:46;85100.09;;;24.86;5.80
36524;BME280;66329;46.796;9.824;2023-01-31T08:58:14;85097.98;;;24.83;5.78
36524;BME280;66329;46.796;9.824;2023-01-31T09:00:42;85101.24;;;24.44;6.16
36524;BME280;66329;46.796;9.824;2023-01-31T09:03:13;85095.60;;;24.72;6.04
36524;BME280;66329;46.796;9.824;2023-01-31T09:05:41;85095.68;;;25.34;5.90
36524;BME280;66329;46.796;9.824;2023-01-31T09:08:08;85092.90;;;25.23;5.60
36524;BME280;66329;46.796;9.824;2023-01-31T09:10:36;85094.41;;;25.19;5.60
36524;BME280;66329;46.796;9.824;2023-01-31T09:13:04;85090.21;;;25.37;5.81
36524;BME280;66329;46.796;9.824;2023-01-31T09:15:31;85088.43;;;25.56;6.03
36524;BME280;66329;46.796;9.824;2023-01-31T09:17:58;85088.05;;;25.31;6.25
36524;BME280;66329;46.796;9.824;2023-01-31T09:20:25;85089.49;;;24.84;6.25
36524;BME280;66329;46.796;9.824;2023-01-31T09:22:52;85090.13;;;24.90;6.51
36524;BME280;66329;46.796;9.824;2023-01-31T09:25:20;85092.81;;;24.93;6.51
36524;BME280;66329;46.796;9.824;2023-01-31T09:27:47;85096.03;;;24.60;6.62
36524;BME280;66329;46.796;9.824;2023-01-31T09:30:14;85099.93;;;24.96;6.53
36524;BME280;66329;46.796;9.824;2023-01-31T09:32:42;85100.01;;;24.93;6.35
36524;BME280;66329;46.796;9.824;2023-01-31T09:35:09;85097.86;;;25.07;6.42
36524;BME280;66329;46.796;9.824;2023-01-31T09:37:36;85097.44;;;25.53;6.32
36524;BME280;66329;46.796;9.824;2023-01-31T09:40:05;85100.24;;;25.13;6.06
36524;BME280;66329;46.796;9.824;2023-01-31T09:42:36;85099.86;;;26.11;6.14
36524;BME280;66329;46.796;9.824;2023-01-31T09:45:12;85101.60;;;25.73;6.04
36524;BME280;66329;46.796;9.824;2023-01-31T09:47:43;85101.23;;;25.72;5.91
36524;BME280;66329;46.796;9.824;2023-01-31T09:50:30;85105.66;;;25.18;6.03
36524;BME280;66329;46.796;9.824;2023-01-31T09:52:59;85108.06;;;25.21;5.93
36524;BME280;66329;46.796;9.824;2023-01-31T09:55:33;85108.44;;;25.39;5.99
36524;BME280;66329;46.796;9.824;2023-01-31T09:58:08;85104.31;;;25.03;6.03
36524;BME280;66329;46.796;9.824;2023-01-31T10:00:46;85104.15;;;25.17;6.12
36524;BME280;66329;46.796;9.824;2023-01-31T10:03:27;85107.76;;;25.13;6.20
36524;BME280;66329;46.796;9.824;2023-01-31T10:06:04;85107.08;;;25.30;6.20
36524;BME280;66329;46.796;9.824;2023-01-31T10:08:40;85106.57;;;25.34;5.94
36524;BME280;66329;46.796;9.824;2023-01-31T10:11:12;85103.10;;;25.36;5.86
36524;BME280;66329;46.796;9.824;2023-01-31T10:13:47;85099.26;;;25.44;5.77
36524;BME280;66329;46.796;9.824;2023-01-31T10:16:22;85096.04;;;26.02;5.72
36524;BME280;66329;46.796;9.824;2023-01-31T10:18:56;85090.45;;;25.04;5.75
36524;BME280;66329;46.796;9.824;2023-01-31T10:21:30;85091.99;;;25.46;5.83
36524;BME280;66329;46.796;9.824;2023-01-31T10:24:02;85091.35;;;25.46;5.74
36524;BME280;66329;46.796;9.824;2023-01-31T10:26:35;85091.48;;;25.40;5.72
36524;BME280;66329;46.796;9.824;2023-01-31T10:29:10;85092.57;;;25.97;5.68
36524;BME280;66329;46.796;9.824;2023-01-31T10:31:42;85090.29;;;25.46;5.64
36524;BME280;66329;46.796;9.824;2023-01-31T10:34:14;85087.77;;;25.37;5.60
36524;BME280;66329;46.796;9.824;2023-01-31T10:36:47;85088.19;;;25.91;5.49
36524;BME280;66329;46.796;9.824;2023-01-31T10:39:20;85090.27;;;25.37;5.47
36524;BME280;66329;46.796;9.824;2023-01-31T10:42:05;85084.98;;;25.40;5.51
36524;BME280;66329;46.796;9.824;2023-01-31T10:44:42;85084.99;;;25.29;5.51
36524;BME280;66329;46.796;9.824;2023-01-31T10:47:13;85085.98;;;25.14;5.51
36524;BME280;66329;46.796;9.824;2023-01-31T10:49:43;85084.12;;;25.10;5.78
36524;BME280;66329;46.796;9.824;2023-01-31T10:52:21;85077.98;;;25.78;6.32
36524;BME280;66329;46.796;9.824;2023-01-31T10:55:02;85073.73;;;25.25;6.26
36524;BME280;66329;46.796;9.824;2023-01-31T10:57:31;85071.34;;;25.33;6.12
36524;BME280;66329;46.796;9.824;2023-01-31T10:59:59;85063.64;;;25.89;5.99
36524;BME280;66329;46.796;9.824;2023-01-31T11:02:27;85058.21;;;26.33;5.82
36524;BME280;66329;46.796;9.824;2023-01-31T11:04:57;85053.82;;;25.45;5.73
36524;BME280;66329;46.796;9.824;2023-01-31T11:07:28;85048.42;;;25.95;5.64
36524;BME280;66329;46.796;9.824;2023-01-31T11:09:57;85049.43;;;25.93;5.49
36524;BME280;66329;46.796;9.824;2023-01-31T11:12:40;85049.26;;;25.41;5.33
36524;BME280;66329;46.796;9.824;2023-01-31T11:15:15;85039.62;;;25.37;5.36
36524;BME280;66329;46.796;9.824;2023-01-31T11:17:44;85035.31;;;25.41;5.37
36524;BME280;66329;46.796;9.824;2023-01-31T11:20:21;85031.97;;;25.42;5.02
36524;BME280;66329;46.796;9.824;2023-01-31T11:22:51;85027.43;;;25.86;4.84
36524;BME280;66329;46.796;9.824;2023-01-31T11:25:21;85019.65;;;25.31;4.80
36524;BME280;66329;46.796;9.824;2023-01-31T11:27:52;85014.12;;;25.30;4.69
36524;BME280;66329;46.796;9.824;2023-01-31T11:30:24;85011.69;;;25.26;4.71
36524;BME280;66329;46.796;9.824;2023-01-31T11:32:52;85010.07;;;25.75;4.67
36524;BME280;66329;46.796;9.824;2023-01-31T11:35:24;85008.07;;;25.25;4.59
36524;BME280;66329;46.796;9.824;2023-01-31T11:37:54;85005.62;;;25.23;4.54
36524;BME280;66329;46.796;9.824;2023-01-31T11:40:27;85010.14;;;25.18;4.56
36524;BME280;66329;46.796;9.824;2023-01-31T11:42:56;85008.36;;;25.20;4.62
36524;BME280;66329;46.796;9.824;2023-01-31T11:45:26;85004.43;;;25.68;4.57
36524;BME280;66329;46.796;9.824;2023-01-31T11:47:57;85001.58;;;25.09;4.52
36524;BME280;66329;46.796;9.824;2023-01-31T11:50:31;85000.10;;;25.16;4.59
36524;BME280;66329;46.796;9.824;2023-01-31T11:53:01;84999.00;;;25.17;4.59
36524;BME280;66329;46.796;9.824;2023-01-31T11:55:35;84999.80;;;25.21;4.52
36524;BME280;66329;46.796;9.824;2023-01-31T11:58:12;84994.75;;;25.22;4.44
36524;BME280;66329;46.796;9.824;2023-01-31T12:00:49;84993.48;;;25.07;4.38
36524;BME280;66329;46.796;9.824;2023-01-31T12:03:17;84995.52;;;25.64;4.53
36524;BME280;66329;46.796;9.824;2023-01-31T12:05:49;84994.74;;;25.69;4.54
36524;BME280;66329;46.796;9.824;2023-01-31T12:08:34;84992.33;;;25.18;4.55
36524;BME280;66329;46.796;9.824;2023-01-31T12:11:05;84982.39;;;25.19;4.56
36524;BME280;66329;46.796;9.824;2023-01-31T12:13:45;84979.74;;;25.74;4.74
36524;BME280;66329;46.796;9.824;2023-01-31T12:16:13;84984.25;;;25.28;4.77
36524;BME280;66329;46.796;9.824;2023-01-31T12:18:57;84987.41;;;25.30;4.66
36524;BME280;66329;46.796;9.824;2023-01-31T12:21:39;84981.71;;;25.83;4.59
36524;BME280;66329;46.796;9.824;2023-01-31T12:24:17;84978.59;;;25.85;4.61
36524;BME280;66329;46.796;9.824;2023-01-31T12:26:53;84976.45;;;25.45;4.46
36524;BME280;66329;46.796;9.824;2023-01-31T12:29:47;84971.55;;;25.99;4.44
36524;BME280;66329;46.796;9.824;2023-01-31T12:32:31;84970.45;;;25.42;4.37
36524;BME280;66329;46.796;9.824;2023-01-31T12:35:18;84967.75;;;25.53;4.38
36524;BME280;66329;46.796;9.824;2023-01-31T12:37:59;84965.22;;;25.50;4.33
36524;BME280;66329;46.796;9.824;2023-01-31T12:40:37;84968.00;;;25.49;4.27
36524;BME280;66329;46.796;9.824;2023-01-31T12:43:20;84968.89;;;25.13;4.20
36524;BME280;66329;46.796;9.824;2023-01-31T12:46:01;84965.93;;;25.56;4.16
36524;BME280;66329;46.796;9.824;2023-01-31T12:48:47;84959.74;;;26.09;4.40
36524;BME280;66329;46.796;9.824;2023-01-31T12:51:33;84964.46;;;25.62;4.54
36524;BME280;66329;46.796;9.824;2023-01-31T12:54:12;84964.37;;;26.53;4.58
36524;BME280;66329;46.796;9.824;2023-01-31T12:56:49;84954.95;;;25.04;4.62
36524;BME280;66329;46.796;9.824;2023-01-31T12:59:30;84953.05;;;25.51;4.39
36524;BME280;66329;46.796;9.824;2023-01-31T13:02:13;84956.32;;;25.49;4.46
36524;BME280;66329;46.796;9.824;2023-01-31T13:04:47;84953.08;;;25.08;4.69
36524;BME280;66329;46.796;9.824;2023-01-31T13:07:21;84949.83;;;25.59;4.81
36524;BME280;66329;46.796;9.824;2023-01-31T13:09:52;84947.59;;;26.39;4.77
36524;BME280;66329;46.796;9.824;2023-01-31T13:12:26;84949.24;;;26.14;4.77
36524;BME280;66329;46.796;9.824;2023-01-31T13:15:01;84946.31;;;25.58;4.76
36524;BME280;66329;46.796;9.824;2023-01-31T13:17:30;84945.33;;;25.62;4.81
36524;BME280;66329;46.796;9.824;2023-01-31T13:20:02;84945.19;;;25.22;4.85
36524;BME280;66329;46.796;9.824;2023-01-31T13:22:38;84948.78;;;24.73;4.85
36524;BME280;66329;46.796;9.824;2023-01-31T13:25:15;84943.06;;;25.70;4.79
36524;BME280;66329;46.796;9.824;2023-01-31T13:27:57;84944.10;;;24.99;4.65
36524;BME280;66329;46.796;9.824;2023-01-31T13:30:33;84943.12;;;25.52;4.63
36524;BME280;66329;46.796;9.824;2023-01-31T13:33:13;84942.76;;;25.77;4.68